Time;durP1;ratioP1;P1;durP2;ratioP2;P2;SDS_P1;SDS_P2;PMS_P1;PMS_P2;Temp;Humidity;BMP_temperature;BMP_pressure;BME280_temperature;BME280_humidity;BME280_pressure;Samples;Min_cycle;Max_cycle;Signal;HPM_P1;HPM_P2
2023/05/06 00:00:39;;;;;;;9.38;6.90;;;14.90;99.90;;;;;;6200965;28;20504;-79
2023/05/06 00:03:41;;;;;;;9.70;7.60;;;14.90;99.90;;;;;;6200292;28;20505;-81
2023/05/06 00:06:43;;;;;;;8.20;7.22;;;14.90;99.90;;;;;;6195690;28;20057;-81
2023/05/06 00:09:45;;;;;;;12.43;8.95;;;14.80;99.90;;;;;;6196019;28;20050;-80
2023/05/06 00:12:48;;;;;;;11.27;8.70;;;14.80;99.90;;;;;;6197388;28;20235;-77
2023/05/06 00:15:50;;;;;;;11.80;7.72;;;14.80;99.90;;;;;;6197531;28;20081;-81
2023/05/06 00:18:52;;;;;;;9.00;7.35;;;14.80;99.90;;;;;;6197109;28;20054;-81
2023/05/06 00:21:54;;;;;;;11.07;8.15;;;14.70;99.90;;;;;;6197372;28;20519;-80
2023/05/06 00:24:56;;;;;;;9.45;7.75;;;14.70;99.90;;;;;;6197638;28;20050;-81
2023/05/06 00:27:59;;;;;;;9.32;8.43;;;14.70;99.90;;;;;;6202096;28;20050;-80
2023/05/06 00:31:01;;;;;;;17.05;9.18;;;14.60;99.90;;;;;;6196818;28;20054;-81
2023/05/06 00:34:03;;;;;;;10.15;7.97;;;14.60;99.90;;;;;;6198195;28;20054;-82
2023/05/06 00:37:04;;;;;;;14.57;9.05;;;14.60;99.90;;;;;;6198925;28;20496;-79
2023/05/06 00:40:08;;;;;;;9.98;8.80;;;14.60;99.90;;;;;;6197136;28;20049;-79
2023/05/06 00:43:11;;;;;;;13.85;10.38;;;14.60;99.90;;;;;;6199938;28;20050;-79
2023/05/06 00:46:16;;;;;;;13.38;9.23;;;14.50;99.90;;;;;;6198161;28;20042;-80
2023/05/06 00:49:18;;;;;;;10.20;8.98;;;14.50;99.90;;;;;;6198249;28;20058;-81
2023/05/06 00:52:20;;;;;;;16.13;9.30;;;14.50;99.90;;;;;;6203821;28;20054;-81
2023/05/06 00:55:22;;;;;;;10.40;9.40;;;14.50;99.90;;;;;;6199463;28;20061;-80
2023/05/06 00:58:25;;;;;;;13.25;9.93;;;14.50;99.90;;;;;;6202190;28;20050;-81
2023/05/06 01:01:26;;;;;;;19.08;10.30;;;14.50;99.90;;;;;;6199425;28;20050;-81
2023/05/06 01:04:29;;;;;;;13.73;9.15;;;14.40;99.90;;;;;;6198849;28;20464;-81
2023/05/06 01:07:36;;;;;;;13.35;10.73;;;14.40;99.90;;;;;;6201999;28;20109;-81
2023/05/06 01:10:45;;;;;;;9.75;8.90;;;14.40;99.90;;;;;;6198361;28;20042;-81
2023/05/06 01:13:56;;;;;;;17.17;12.73;;;14.30;99.90;;;;;;6200958;28;20038;-79
2023/05/06 01:17:03;;;;;;;12.70;9.70;;;14.20;99.90;;;;;;6199524;28;20041;-79
2023/05/06 01:20:09;;;;;;;14.90;9.85;;;14.10;99.90;;;;;;6197507;28;20050;-78
2023/05/06 01:23:13;;;;;;;11.15;9.38;;;14.00;99.90;;;;;;6221523;28;20050;-78
2023/05/06 01:26:15;;;;;;;18.75;10.32;;;14.00;99.90;;;;;;6220829;28;20511;-78
2023/05/06 01:29:17;;;;;;;16.50;11.52;;;13.90;99.90;;;;;;6218815;28;20054;-81
2023/05/06 01:32:38;;;;;;;23.70;11.43;;;13.90;99.90;;;;;;6220676;28;20065;-76
2023/05/06 01:35:49;;;;;;;14.75;11.20;;;13.80;99.90;;;;;;6219621;28;20058;-79
2023/05/06 01:38:57;;;;;;;14.07;11.20;;;13.80;99.90;;;;;;6219884;28;20084;-79
2023/05/06 01:42:01;;;;;;;17.60;11.90;;;13.70;99.90;;;;;;6221795;28;20169;-79
2023/05/06 01:45:07;;;;;;;15.73;12.50;;;13.60;99.90;;;;;;6220680;28;20050;-76
2023/05/06 01:48:09;;;;;;;22.48;12.38;;;13.50;99.90;;;;;;6218146;28;20077;-79
2023/05/06 01:51:11;;;;;;;19.55;13.07;;;13.50;99.90;;;;;;6220796;28;20042;-77
2023/05/06 01:54:14;;;;;;;19.83;12.30;;;13.50;99.90;;;;;;6222531;28;20061;-79
2023/05/06 01:57:16;;;;;;;22.00;13.45;;;13.50;99.90;;;;;;6221668;28;20095;-81
2023/05/06 02:00:18;;;;;;;15.95;13.90;;;13.50;99.90;;;;;;6218761;28;20053;-80
2023/05/06 02:03:20;;;;;;;19.33;12.82;;;13.50;99.90;;;;;;6228319;28;20117;-81
2023/05/06 02:06:22;;;;;;;20.02;12.70;;;13.50;99.90;;;;;;6224139;28;20874;-79
2023/05/06 02:09:25;;;;;;;14.27;12.40;;;13.40;99.90;;;;;;6220110;28;20132;-80
2023/05/06 02:12:26;;;;;;;16.50;12.75;;;13.40;99.90;;;;;;6219340;28;20061;-82
2023/05/06 02:15:28;;;;;;;21.55;13.45;;;13.40;99.90;;;;;;6222257;28;20065;-79
2023/05/06 02:18:30;;;;;;;13.07;10.82;;;13.40;99.90;;;;;;6219240;28;20404;-81
2023/05/06 02:21:31;;;;;;;16.55;11.27;;;13.30;99.90;;;;;;6222214;28;20058;-80
2023/05/06 02:24:34;;;;;;;16.95;11.65;;;13.30;99.90;;;;;;6224750;28;20117;-81
2023/05/06 02:27:36;;;;;;;14.30;10.90;;;13.20;99.90;;;;;;6222775;28;23243;-81
2023/05/06 02:30:38;;;;;;;17.52;11.93;;;13.10;99.90;;;;;;6225044;28;20050;-81
2023/05/06 02:33:40;;;;;;;16.85;11.38;;;13.10;99.90;;;;;;6223826;28;20054;-82
2023/05/06 02:36:42;;;;;;;18.52;13.23;;;13.00;99.90;;;;;;6228591;28;20121;-80
2023/05/06 02:39:45;;;;;;;19.48;11.48;;;13.00;99.90;;;;;;6226845;28;20050;-81
2023/05/06 02:42:46;;;;;;;13.90;11.68;;;12.90;99.90;;;;;;6226826;28;20092;-80
2023/05/06 02:45:48;;;;;;;20.27;11.07;;;12.80;99.90;;;;;;6221259;28;20057;-79
2023/05/06 02:48:50;;;;;;;19.10;11.73;;;12.80;99.90;;;;;;6225230;28;20042;-81
2023/05/06 02:51:51;;;;;;;19.40;11.13;;;12.80;99.90;;;;;;6226684;28;20045;-80
2023/05/06 02:54:57;;;;;;;15.65;11.50;;;12.80;99.90;;;;;;6224340;28;20090;-82
2023/05/06 02:57:59;;;;;;;12.70;10.88;;;12.70;99.90;;;;;;6223303;28;20034;-78
2023/05/06 03:01:01;;;;;;;25.45;15.35;;;12.70;99.90;;;;;;6225423;28;20124;-81
2023/05/06 03:04:03;;;;;;;13.02;11.05;;;12.70;99.90;;;;;;6223582;28;20053;-81
2023/05/06 03:07:05;;;;;;;13.07;10.93;;;12.60;99.90;;;;;;6223856;28;20050;-81
2023/05/06 03:10:10;;;;;;;23.02;11.88;;;12.60;99.90;;;;;;6227869;28;20111;-81
2023/05/06 03:13:11;;;;;;;14.65;11.20;;;12.50;99.90;;;;;;6232257;28;20057;-77
2023/05/06 03:16:13;;;;;;;19.42;11.85;;;12.50;99.90;;;;;;6228714;28;20103;-81
2023/05/06 03:19:16;;;;;;;15.00;10.90;;;12.40;99.90;;;;;;6223908;28;20105;-81
2023/05/06 03:22:18;;;;;;;15.90;10.48;;;12.40;99.90;;;;;;6225397;28;20382;-81
2023/05/06 03:25:21;;;;;;;11.02;9.52;;;12.30;99.90;;;;;;6226866;28;20052;-81
2023/05/06 03:28:23;;;;;;;10.30;9.23;;;12.30;99.90;;;;;;6225014;28;20045;-77
2023/05/06 03:31:25;;;;;;;13.00;9.52;;;12.20;99.90;;;;;;6226531;28;20049;-81
2023/05/06 03:34:27;;;;;;;16.02;10.88;;;12.20;99.90;;;;;;6225512;28;20046;-80
2023/05/06 03:37:29;;;;;;;12.90;10.80;;;12.10;99.90;;;;;;6223756;28;20061;-80
2023/05/06 03:40:32;;;;;;;13.23;9.95;;;12.00;99.90;;;;;;6223643;28;20053;-80
2023/05/06 03:43:34;;;;;;;14.15;9.70;;;12.00;99.90;;;;;;6222133;28;20089;-80
2023/05/06 03:46:37;;;;;;;13.55;10.20;;;11.90;99.90;;;;;;6225508;28;20057;-81
2023/05/06 03:49:39;;;;;;;13.13;9.90;;;11.90;99.90;;;;;;6224381;28;20046;-81
2023/05/06 03:52:41;;;;;;;21.52;14.68;;;11.90;99.90;;;;;;6225369;28;20053;-81
2023/05/06 03:55:44;;;;;;;13.45;10.30;;;11.80;99.90;;;;;;6223264;28;20056;-79
2023/05/06 03:58:45;;;;;;;15.93;11.48;;;11.80;99.90;;;;;;6226479;28;20034;-81
2023/05/06 04:01:47;;;;;;;13.77;10.70;;;11.80;99.90;;;;;;6223375;28;20058;-81
2023/05/06 04:04:49;;;;;;;21.02;9.75;;;11.70;99.90;;;;;;6226926;28;20050;-81
2023/05/06 04:07:51;;;;;;;14.50;9.68;;;11.70;99.90;;;;;;6225789;28;20061;-79
2023/05/06 04:10:55;;;;;;;15.20;8.55;;;11.60;99.90;;;;;;6222332;28;20427;-78
2023/05/06 04:13:57;;;;;;;13.55;10.15;;;11.60;99.90;;;;;;6224030;28;20528;-81
2023/05/06 04:16:58;;;;;;;15.80;9.98;;;11.50;99.90;;;;;;6226971;28;20518;-80
2023/05/06 04:20:05;;;;;;;16.00;9.73;;;11.50;99.90;;;;;;6224300;28;20046;-81
2023/05/06 04:23:07;;;;;;;16.97;10.50;;;11.50;99.90;;;;;;6231008;28;20038;-80
2023/05/06 04:26:10;;;;;;;18.23;10.90;;;11.50;99.90;;;;;;6223531;28;20072;-81
2023/05/06 04:29:12;;;;;;;12.75;10.60;;;11.50;99.90;;;;;;6224207;28;20052;-81
2023/05/06 04:32:16;;;;;;;14.32;9.93;;;11.50;99.90;;;;;;6226113;28;20124;-79
2023/05/06 04:35:17;;;;;;;16.20;11.80;;;11.50;99.90;;;;;;6223980;28;20755;-81
2023/05/06 04:38:20;;;;;;;19.30;11.88;;;11.60;99.90;;;;;;6223839;28;20612;-80
2023/05/06 04:41:24;;;;;;;17.77;11.18;;;11.60;99.90;;;;;;6220552;28;20085;-81
2023/05/06 04:44:28;;;;;;;29.95;12.25;;;11.60;99.90;;;;;;6222447;28;20049;-78
2023/05/06 04:47:29;;;;;;;11.70;10.45;;;11.70;99.90;;;;;;6223561;28;20056;-81
2023/05/06 04:50:32;;;;;;;16.05;9.77;;;11.90;99.90;;;;;;6218274;28;20512;-80
2023/05/06 04:53:33;;;;;;;13.10;9.10;;;12.10;99.90;;;;;;6225168;28;20057;-79
2023/05/06 04:56:36;;;;;;;13.35;9.15;;;12.20;99.90;;;;;;6221485;28;20413;-80
2023/05/06 04:59:38;;;;;;;13.75;9.82;;;12.30;99.90;;;;;;6224379;28;20053;-81
2023/05/06 05:02:40;;;;;;;12.40;9.60;;;12.40;99.90;;;;;;6225697;28;20404;-81
2023/05/06 05:05:41;;;;;;;11.77;9.45;;;12.60;99.90;;;;;;6222166;28;20488;-79
2023/05/06 05:08:43;;;;;;;9.07;8.18;;;12.80;99.90;;;;;;6221819;28;20065;-78
2023/05/06 05:11:46;;;;;;;7.85;7.15;;;13.00;99.90;;;;;;6222190;28;20050;-81
2023/05/06 05:14:48;;;;;;;10.90;7.90;;;13.10;99.90;;;;;;6220780;28;20049;-78
2023/05/06 05:17:50;;;;;;;9.02;6.93;;;13.30;99.90;;;;;;6218887;28;20045;-79
2023/05/06 05:20:52;;;;;;;9.48;6.95;;;13.60;99.90;;;;;;6219091;28;22820;-81
2023/05/06 05:23:54;;;;;;;8.75;7.95;;;13.80;99.90;;;;;;6221833;28;20061;-82
2023/05/06 05:26:57;;;;;;;7.55;6.85;;;14.10;99.90;;;;;;6220921;28;20139;-81
2023/05/06 05:29:58;;;;;;;7.72;6.43;;;14.40;99.90;;;;;;6220937;28;20050;-80
2023/05/06 05:33:00;;;;;;;7.85;6.95;;;14.70;99.90;;;;;;6222741;28;20041;-80
2023/05/06 05:36:02;;;;;;;7.10;5.55;;;15.10;99.90;;;;;;6222044;28;20137;-80
2023/05/06 05:39:04;;;;;;;6.90;6.28;;;15.40;99.90;;;;;;6225257;28;20046;-76
2023/05/06 05:42:07;;;;;;;13.10;8.00;;;15.80;99.90;;;;;;6227055;28;20047;-81
2023/05/06 05:45:09;;;;;;;9.00;8.07;;;16.10;99.90;;;;;;6248692;22;21185;-77
2023/05/06 05:48:11;;;;;;;15.00;6.88;;;16.40;99.90;;;;;;6222838;28;20120;-77
2023/05/06 05:51:13;;;;;;;12.98;7.68;;;16.70;99.90;;;;;;6221140;28;20105;-77
2023/05/06 05:54:15;;;;;;;7.05;6.32;;;16.90;99.90;;;;;;6221874;28;20041;-77
2023/05/06 05:57:18;;;;;;;7.88;6.70;;;17.20;99.90;;;;;;6220038;28;20046;-77
2023/05/06 06:00:20;;;;;;;7.35;6.65;;;17.30;99.90;;;;;;6221182;28;20527;-77
2023/05/06 06:03:22;;;;;;;9.70;7.10;;;17.50;99.90;;;;;;6222032;28;20069;-77
2023/05/06 06:06:24;;;;;;;7.75;6.50;;;17.60;99.90;;;;;;6219016;28;20049;-77
2023/05/06 06:09:26;;;;;;;11.85;7.13;;;17.70;99.90;;;;;;6221089;28;20049;-76
2023/05/06 06:12:29;;;;;;;8.80;7.05;;;17.80;99.90;;;;;;6222534;28;20442;-78
2023/05/06 06:15:30;;;;;;;7.50;6.63;;;18.20;99.90;;;;;;6226814;28;20488;-77
2023/05/06 06:18:32;;;;;;;11.55;7.00;;;18.40;99.90;;;;;;6221734;28;20053;-77
2023/05/06 06:21:34;;;;;;;6.95;6.28;;;18.70;99.90;;;;;;6221919;28;20060;-77
2023/05/06 06:24:35;;;;;;;7.53;6.82;;;19.10;99.90;;;;;;6222722;28;20054;-78
2023/05/06 06:27:38;;;;;;;7.40;6.70;;;19.40;99.90;;;;;;6224539;28;20065;-78
2023/05/06 06:30:41;;;;;;;8.05;6.18;;;19.60;99.90;;;;;;6227921;28;20042;-78
2023/05/06 06:33:42;;;;;;;10.13;7.53;;;19.70;99.90;;;;;;6228406;28;20038;-78
2023/05/06 06:36:44;;;;;;;8.98;6.82;;;20.00;99.90;;;;;;6225719;28;20050;-76
2023/05/06 06:39:46;;;;;;;5.65;5.15;;;20.40;99.90;;;;;;6221389;28;20092;-78
2023/05/06 06:42:50;;;;;;;6.68;6.07;;;20.70;99.90;;;;;;6223635;28;20053;-78
2023/05/06 06:45:51;;;;;;;10.73;6.43;;;21.20;99.90;;;;;;6224941;28;20136;-77
2023/05/06 06:48:53;;;;;;;6.18;5.57;;;21.60;99.90;;;;;;6230431;28;20038;-79
2023/05/06 06:51:56;;;;;;;6.95;6.18;;;22.00;99.90;;;;;;6226315;28;20049;-76
2023/05/06 06:54:58;;;;;;;8.30;6.90;;;22.20;99.90;;;;;;6218845;28;20052;-78
2023/05/06 06:58:01;;;;;;;7.07;5.93;;;22.70;99.90;;;;;;6220458;28;20046;-78
2023/05/06 07:01:02;;;;;;;7.18;5.20;;;23.10;99.90;;;;;;6223710;28;20412;-78
2023/05/06 07:04:04;;;;;;;5.13;4.50;;;23.20;99.90;;;;;;6222725;28;20423;-78
2023/05/06 07:07:06;;;;;;;8.30;5.90;;;23.50;99.90;;;;;;6224040;28;20046;-80
2023/05/06 07:10:08;;;;;;;6.95;6.35;;;23.80;99.90;;;;;;6222489;28;20049;-79
2023/05/06 07:13:12;;;;;;;8.50;5.55;;;24.10;99.90;;;;;;6223835;28;20124;-79
2023/05/06 07:16:13;;;;;;;13.93;6.55;;;24.30;99.90;;;;;;6226530;28;20061;-78
2023/05/06 07:19:15;;;;;;;7.60;5.82;;;24.30;99.90;;;;;;6224070;28;20136;-79
2023/05/06 07:22:17;;;;;;;11.10;5.82;;;24.30;99.90;;;;;;6226623;28;20408;-80
2023/05/06 07:25:19;;;;;;;11.82;5.43;;;24.40;99.90;;;;;;6225203;28;20056;-79
2023/05/06 07:28:22;;;;;;;7.88;4.55;;;25.00;99.90;;;;;;6219986;28;20417;-79
2023/05/06 07:31:23;;;;;;;7.35;5.05;;;25.20;99.00;;;;;;6225546;28;20053;-79
2023/05/06 07:34:25;;;;;;;6.22;5.10;;;25.50;98.60;;;;;;6227273;28;20049;-79
2023/05/06 07:37:27;;;;;;;5.38;3.55;;;25.40;97.40;;;;;;6222064;28;20414;-79
2023/05/06 07:40:29;;;;;;;4.68;3.92;;;24.90;97.40;;;;;;6222886;28;20704;-80
2023/05/06 07:43:32;;;;;;;6.10;3.85;;;24.70;97.50;;;;;;6231524;28;20117;-80
2023/05/06 07:46:34;;;;;;;7.55;4.10;;;25.00;97.50;;;;;;6231224;28;20038;-81
2023/05/06 07:49:36;;;;;;;9.23;4.10;;;25.50;96.60;;;;;;6231732;28;20439;-79
2023/05/06 07:52:38;;;;;;;5.10;3.70;;;25.80;95.70;;;;;;6233708;28;20056;-81
2023/05/06 07:55:39;;;;;;;4.70;2.63;;;25.90;95.00;;;;;;6237285;28;20069;-78
2023/05/06 07:58:42;;;;;;;4.38;2.72;;;26.00;94.30;;;;;;6231971;28;20038;-79
2023/05/06 08:01:44;;;;;;;4.72;3.03;;;26.20;93.80;;;;;;6227460;28;20049;-79
2023/05/06 08:04:46;;;;;;;3.33;2.88;;;26.30;93.30;;;;;;6232823;28;20054;-82
2023/05/06 08:07:49;;;;;;;7.50;2.33;;;26.50;92.80;;;;;;6227892;28;20042;-79
2023/05/06 08:10:50;;;;;;;2.85;1.92;;;26.20;91.60;;;;;;6227876;28;20033;-80
2023/05/06 08:13:53;;;;;;;8.32;2.72;;;25.60;91.20;;;;;;6228629;28;20041;-79
2023/05/06 08:16:55;;;;;;;7.82;2.55;;;25.00;91.20;;;;;;6229978;28;20042;-78
2023/05/06 08:19:56;;;;;;;4.55;2.50;;;24.40;92.00;;;;;;6224042;28;20038;-79
2023/05/06 08:22:59;;;;;;;2.90;2.20;;;23.90;92.40;;;;;;6221464;28;20062;-77
2023/05/06 08:26:01;;;;;;;4.35;2.47;;;23.40;92.70;;;;;;6220706;28;20065;-77
2023/05/06 08:29:05;;;;;;;5.75;3.47;;;23.10;93.20;;;;;;6221778;28;20444;-78
2023/05/06 08:32:07;;;;;;;2.78;1.92;;;22.90;93.40;;;;;;6225419;28;20050;-76
2023/05/06 08:35:09;;;;;;;5.28;2.33;;;22.80;93.20;;;;;;6219390;28;23370;-77
2023/05/06 08:38:11;;;;;;;2.17;1.75;;;22.60;93.10;;;;;;6219744;28;20500;-77
2023/05/06 08:41:16;;;;;;;2.00;1.35;;;22.40;93.00;;;;;;6219941;28;20057;-77
2023/05/06 08:44:22;;;;;;;2.38;1.33;;;22.20;93.00;;;;;;6216914;28;20121;-77
2023/05/06 08:47:24;;;;;;;6.97;1.35;;;22.10;93.20;;;;;;6221197;28;20057;-77
2023/05/06 08:50:25;;;;;;;1.90;1.40;;;22.10;93.50;;;;;;6220385;28;20041;-78
2023/05/06 08:53:28;;;;;;;2.40;1.10;;;22.50;93.20;;;;;;6220675;28;20038;-78
2023/05/06 08:56:33;;;;;;;4.78;1.70;;;23.00;92.50;;;;;;6220539;28;20068;-78
2023/05/06 08:59:36;;;;;;;3.65;1.95;;;23.40;92.00;;;;;;6221900;28;20495;-77
2023/05/06 09:02:38;;;;;;;3.10;1.52;;;23.70;91.40;;;;;;6219506;28;20121;-78
2023/05/06 09:05:40;;;;;;;2.92;1.42;;;24.20;90.80;;;;;;6219397;28;20045;-78
2023/05/06 09:08:42;;;;;;;3.63;1.60;;;24.50;90.40;;;;;;6226161;28;20072;-77
2023/05/06 09:11:43;;;;;;;3.25;1.60;;;24.80;90.20;;;;;;6219451;28;20503;-79
2023/05/06 09:14:50;;;;;;;2.00;1.80;;;25.10;89.80;;;;;;6222195;28;20038;-80
2023/05/06 09:17:52;;;;;;;1.83;1.42;;;25.20;89.10;;;;;;6225028;28;20065;-79
2023/05/06 09:20:54;;;;;;;2.97;1.58;;;25.40;89.00;;;;;;6230515;28;20044;-79
2023/05/06 09:23:56;;;;;;;2.63;2.42;;;25.70;88.20;;;;;;6223413;28;20061;-79
2023/05/06 09:26:57;;;;;;;3.70;1.88;;;25.70;87.00;;;;;;6226255;28;20038;-79
2023/05/06 09:30:03;;;;;;;2.15;1.70;;;25.50;85.80;;;;;;6220233;28;20057;-79
2023/05/06 09:33:06;;;;;;;2.10;1.42;;;25.40;85.20;;;;;;6222079;28;20084;-79
2023/05/06 09:36:12;;;;;;;1.38;1.27;;;25.40;85.20;;;;;;6223624;28;20057;-79
2023/05/06 09:39:13;;;;;;;3.85;1.67;;;25.30;84.20;;;;;;6223850;28;20061;-78
2023/05/06 09:42:16;;;;;;;2.50;1.60;;;25.10;84.30;;;;;;6225085;28;20062;-79
2023/05/06 09:45:19;;;;;;;3.72;1.65;;;25.00;83.70;;;;;;6226348;28;20415;-79
2023/05/06 09:48:22;;;;;;;4.20;1.30;;;24.70;83.90;;;;;;6220409;28;20049;-79
2023/05/06 09:51:24;;;;;;;3.88;1.95;;;24.50;84.20;;;;;;6223350;28;20050;-79
2023/05/06 09:54:27;;;;;;;4.70;2.10;;;24.30;84.30;;;;;;6226674;28;20053;-78
2023/05/06 09:57:30;;;;;;;3.28;1.42;;;24.30;84.20;;;;;;6223457;28;20053;-80
2023/05/06 10:00:34;;;;;;;1.90;1.50;;;24.20;84.30;;;;;;6227138;28;20041;-78
2023/05/06 10:03:37;;;;;;;2.25;2.00;;;24.00;83.90;;;;;;6226550;28;20404;-79
2023/05/06 10:06:40;;;;;;;2.00;1.30;;;24.10;83.70;;;;;;6223147;28;20665;-78
2023/05/06 10:09:43;;;;;;;2.10;1.50;;;24.20;82.60;;;;;;6225765;28;20053;-79
2023/05/06 10:12:46;;;;;;;1.40;1.30;;;24.20;81.90;;;;;;6223731;28;20064;-76
2023/05/06 10:15:50;;;;;;;5.80;1.02;;;24.00;81.40;;;;;;6222428;28;20064;-79
2023/05/06 10:18:54;;;;;;;2.05;1.13;;;23.90;81.70;;;;;;6223146;28;20042;-80
2023/05/06 10:22:04;;;;;;;2.70;0.90;;;24.20;81.40;;;;;;6222803;28;20050;-76
2023/05/06 10:25:26;;;;;;;3.28;2.30;;;24.60;79.90;;;;;;6223464;28;20412;-80
2023/05/06 10:28:29;;;;;;;2.42;1.58;;;24.40;79.10;;;;;;6224977;28;20360;-79
2023/05/06 10:31:34;;;;;;;1.83;1.05;;;24.00;79.80;;;;;;6226905;28;20048;-80
2023/05/06 10:34:43;;;;;;;1.00;0.90;;;24.00;80.70;;;;;;6223509;28;20046;-79
2023/05/06 10:37:46;;;;;;;2.58;1.33;;;24.40;79.40;;;;;;6227200;28;20050;-81
2023/05/06 10:40:49;;;;;;;0.95;0.85;;;24.90;78.30;;;;;;6224092;28;20404;-79
2023/05/06 10:43:55;;;;;;;1.55;1.02;;;25.50;76.70;;;;;;6227425;28;20054;-79
2023/05/06 10:46:59;;;;;;;2.70;0.88;;;26.00;75.50;;;;;;6226213;28;20054;-80
2023/05/06 10:50:28;;;;;;;1.48;1.10;;;26.50;73.60;;;;;;6228512;28;20053;-80
2023/05/06 10:53:56;;;;;;;3.58;0.82;;;26.70;71.20;;;;;;6171341;28;20053;-80
2023/05/06 10:57:10;;;;;;;3.55;1.55;;;26.90;71.30;;;;;;6227353;28;20049;-82
2023/05/06 11:00:14;;;;;;;0.80;0.70;;;27.10;69.60;;;;;;6228308;28;20080;-81
2023/05/06 11:03:23;;;;;;;1.88;1.20;;;27.20;68.80;;;;;;6228583;28;20204;-78
2023/05/06 11:06:36;;;;;;;1.95;0.90;;;27.40;68.10;;;;;;6228501;28;20045;-78
2023/05/06 11:09:54;;;;;;;3.00;1.05;;;28.00;66.70;;;;;;6230778;28;20037;-80
2023/05/06 11:12:56;;;;;;;1.05;0.77;;;28.20;66.60;;;;;;6231336;28;20610;-79
2023/05/06 11:15:59;;;;;;;1.45;1.10;;;28.40;66.40;;;;;;6230085;28;20059;-81
2023/05/06 11:19:02;;;;;;;2.92;1.00;;;28.60;65.10;;;;;;6236656;28;20046;-80
2023/05/06 11:22:05;;;;;;;1.50;0.80;;;28.70;63.70;;;;;;6231404;28;20046;-80
2023/05/06 11:25:08;;;;;;;1.90;0.70;;;28.80;63.40;;;;;;6230065;28;20057;-79
2023/05/06 11:28:10;;;;;;;2.70;1.40;;;29.00;62.50;;;;;;6226535;28;20046;-80
2023/05/06 11:31:12;;;;;;;1.65;1.20;;;28.80;61.50;;;;;;6228374;28;20085;-80
2023/05/06 11:34:21;;;;;;;1.63;0.90;;;28.80;61.70;;;;;;6229774;28;20886;-81
2023/05/06 11:37:27;;;;;;;4.63;2.10;;;28.90;60.90;;;;;;6230462;28;20045;-81
2023/05/06 11:40:29;;;;;;;4.53;0.98;;;29.10;60.50;;;;;;6231802;28;20049;-81
2023/05/06 11:43:31;;;;;;;2.53;0.93;;;29.20;60.20;;;;;;6231071;28;20057;-81
2023/05/06 11:46:33;;;;;;;1.02;1.00;;;29.40;59.70;;;;;;6232710;28;20049;-83
2023/05/06 11:49:38;;;;;;;1.45;0.80;;;29.60;58.10;;;;;;6242066;28;20057;-82
2023/05/06 11:52:40;;;;;;;3.67;1.20;;;29.50;57.40;;;;;;6238002;28;20510;-83
2023/05/06 11:55:41;;;;;;;68.57;12.00;;;29.50;57.70;;;;;;6249107;28;20056;-83
2023/05/06 11:58:43;;;;;;;155.73;24.58;;;29.70;57.40;;;;;;6241455;28;20048;-81
2023/05/06 12:01:46;;;;;;;3.53;1.00;;;30.00;57.60;;;;;;6239188;28;20087;-83
2023/05/06 12:04:50;;;;;;;1.13;1.00;;;30.30;56.10;;;;;;6240986;28;20049;-81
2023/05/06 12:07:51;;;;;;;2.70;2.05;;;30.10;55.40;;;;;;6245015;28;20056;-82
2023/05/06 12:10:56;;;;;;;195.00;34.75;;;29.80;55.50;;;;;;6237234;28;20044;-83
2023/05/06 12:13:58;;;;;;;1.75;1.10;;;29.30;56.00;;;;;;6244097;28;20053;-81
2023/05/06 12:16:59;;;;;;;1.98;1.02;;;28.70;56.00;;;;;;6239864;28;20541;-82
2023/05/06 12:20:04;;;;;;;1.65;0.90;;;27.60;56.10;;;;;;6243304;28;20048;-81
2023/05/06 12:23:06;;;;;;;2.85;1.38;;;27.10;57.90;;;;;;6241383;28;20053;-80
2023/05/06 12:26:08;;;;;;;0.80;0.80;;;27.20;57.80;;;;;;6238334;28;20527;-79
2023/05/06 12:29:12;;;;;;;2.95;1.35;;;27.40;56.70;;;;;;6231455;28;20409;-79
2023/05/06 12:32:14;;;;;;;1.10;0.90;;;27.60;56.20;;;;;;6229292;28;20049;-79
2023/05/06 12:35:26;;;;;;;8.52;1.23;;;27.70;55.40;;;;;;6227805;28;20063;-79
2023/05/06 12:38:28;;;;;;;1.38;0.63;;;28.10;54.70;;;;;;6232838;28;20069;-79
2023/05/06 12:41:38;;;;;;;1.20;0.80;;;28.40;54.20;;;;;;6224634;28;20073;-79
2023/05/06 12:44:40;;;;;;;1.92;1.00;;;28.50;54.00;;;;;;6234050;28;20050;-80
2023/05/06 12:47:52;;;;;;;2.28;0.70;;;28.50;53.50;;;;;;6238384;28;20046;-80
2023/05/06 12:50:55;;;;;;;1.02;0.93;;;28.30;52.90;;;;;;6235327;28;20117;-80
2023/05/06 12:53:57;;;;;;;0.93;0.77;;;28.30;53.10;;;;;;6234955;28;20045;-79
2023/05/06 12:56:59;;;;;;;2.15;1.65;;;28.40;53.10;;;;;;6235923;28;20729;-80
2023/05/06 13:00:00;;;;;;;1.00;0.77;;;28.30;54.00;;;;;;6238374;28;20057;-80
2023/05/06 13:03:02;;;;;;;1.42;0.93;;;28.40;53.10;;;;;;6237158;28;20045;-79
2023/05/06 13:06:06;;;;;;;2.05;1.00;;;28.00;52.90;;;;;;6231214;28;20531;-80
2023/05/06 13:09:08;;;;;;;2.53;1.60;;;27.80;53.00;;;;;;6231167;28;20051;-79
2023/05/06 13:12:09;;;;;;;2.80;1.98;;;27.90;52.90;;;;;;6233244;28;20057;-80
2023/05/06 13:15:11;;;;;;;1.27;1.00;;;28.10;52.60;;;;;;6234786;28;20060;-78
2023/05/06 13:18:14;;;;;;;4.80;1.40;;;28.10;52.50;;;;;;6232091;28;20393;-80
2023/05/06 13:21:17;;;;;;;2.03;0.90;;;28.00;53.10;;;;;;6232616;28;20636;-78
2023/05/06 13:24:18;;;;;;;1.73;1.05;;;28.40;53.90;;;;;;6233403;28;20050;-78
2023/05/06 13:27:20;;;;;;;3.50;0.80;;;28.80;52.20;;;;;;6236080;28;20061;-79
2023/05/06 13:30:22;;;;;;;3.08;1.73;;;28.60;51.40;;;;;;6231274;28;20037;-78
2023/05/06 13:33:23;;;;;;;3.22;1.88;;;28.40;51.60;;;;;;6225811;28;20041;-79
2023/05/06 13:36:27;;;;;;;2.28;0.98;;;28.10;51.40;;;;;;6224190;28;20073;-79
2023/05/06 13:39:28;;;;;;;0.88;0.70;;;27.70;52.10;;;;;;6234187;28;20065;-79
2023/05/06 13:42:31;;;;;;;3.67;2.10;;;27.40;52.40;;;;;;6234427;28;20055;-80
2023/05/06 13:45:33;;;;;;;1.77;1.17;;;27.10;52.70;;;;;;6236414;28;20049;-81
2023/05/06 13:48:35;;;;;;;2.97;0.70;;;26.80;53.00;;;;;;6231070;28;20104;-78
2023/05/06 13:51:38;;;;;;;1.17;0.60;;;26.90;53.30;;;;;;6232136;28;20049;-79
2023/05/06 13:54:39;;;;;;;1.80;0.75;;;27.00;53.20;;;;;;6229307;28;20053;-79
2023/05/06 13:57:41;;;;;;;1.42;0.88;;;26.80;53.00;;;;;;6234545;28;20041;-78
2023/05/06 14:00:43;;;;;;;2.72;0.98;;;26.80;53.50;;;;;;6234106;28;20045;-79
2023/05/06 14:03:45;;;;;;;1.55;1.05;;;26.70;53.10;;;;;;6231109;28;20061;-81
2023/05/06 14:06:48;;;;;;;1.33;0.57;;;26.50;53.40;;;;;;6236040;28;20048;-78
2023/05/06 14:09:49;;;;;;;2.17;0.90;;;26.60;53.90;;;;;;6234115;28;20056;-78
2023/05/06 14:12:51;;;;;;;2.25;0.65;;;26.80;53.70;;;;;;6237149;28;20045;-78
2023/05/06 14:15:54;;;;;;;1.10;0.80;;;26.70;53.50;;;;;;6229474;28;20065;-78
2023/05/06 14:18:56;;;;;;;5.93;1.10;;;26.80;53.50;;;;;;6231296;28;20045;-77
2023/05/06 14:21:59;;;;;;;0.98;0.88;;;27.00;53.80;;;;;;6230806;28;20050;-78
2023/05/06 14:25:00;;;;;;;1.88;0.52;;;27.30;53.50;;;;;;6234002;28;20076;-78
2023/05/06 14:28:02;;;;;;;0.55;0.50;;;27.30;53.30;;;;;;6238054;28;20061;-78
2023/05/06 14:31:04;;;;;;;0.50;0.50;;;27.50;53.30;;;;;;6235547;28;20053;-78
2023/05/06 14:34:06;;;;;;;1.05;0.43;;;27.70;53.50;;;;;;6235195;28;20052;-80
2023/05/06 14:37:09;;;;;;;1.60;0.68;;;28.20;53.30;;;;;;6247228;28;20045;-80
2023/05/06 14:40:11;;;;;;;1.00;0.63;;;28.40;52.50;;;;;;6240906;28;20556;-80
2023/05/06 14:43:13;;;;;;;1.08;0.50;;;28.70;52.20;;;;;;6244023;28;20088;-81
2023/05/06 14:46:15;;;;;;;0.93;0.63;;;28.70;51.70;;;;;;6242357;28;20038;-79
2023/05/06 14:49:16;;;;;;;0.88;0.65;;;28.80;51.50;;;;;;6236828;28;20420;-79
2023/05/06 14:52:20;;;;;;;2.40;0.82;;;28.80;51.50;;;;;;6234557;28;20053;-80
2023/05/06 14:55:22;;;;;;;1.45;0.80;;;28.90;51.60;;;;;;6244116;28;20153;-80
2023/05/06 14:58:23;;;;;;;1.85;0.50;;;29.20;51.00;;;;;;6239267;28;20048;-80
2023/05/06 15:01:25;;;;;;;1.05;0.80;;;29.20;50.50;;;;;;6240735;28;20050;-79
2023/05/06 15:04:27;;;;;;;1.35;1.00;;;29.20;50.10;;;;;;6232559;28;20407;-80
2023/05/06 15:07:31;;;;;;;1.20;0.50;;;29.20;50.30;;;;;;6237801;28;20038;-79
2023/05/06 15:10:32;;;;;;;1.77;0.65;;;28.80;49.90;;;;;;6230879;28;20046;-79
2023/05/06 15:13:34;;;;;;;1.38;0.98;;;28.60;50.30;;;;;;6234409;28;20054;-80
2023/05/06 15:16:36;;;;;;;1.63;0.82;;;28.30;50.50;;;;;;6228851;28;20064;-80
2023/05/06 15:19:37;;;;;;;1.00;0.60;;;28.00;50.60;;;;;;6227692;28;20524;-79
2023/05/06 15:22:40;;;;;;;1.33;0.85;;;27.90;50.70;;;;;;6229117;28;20052;-78
2023/05/06 15:25:42;;;;;;;1.55;1.05;;;27.80;51.20;;;;;;6225392;28;20048;-76
2023/05/06 15:28:43;;;;;;;0.50;0.50;;;27.70;51.90;;;;;;6226443;28;20052;-78
2023/05/06 15:31:45;;;;;;;2.00;0.90;;;27.80;51.50;;;;;;6230840;28;20061;-79
2023/05/06 15:34:47;;;;;;;0.80;0.80;;;27.80;51.30;;;;;;6228020;28;20442;-80
2023/05/06 15:37:57;;;;;;;1.00;0.77;;;27.80;51.00;;;;;;6230847;28;20464;-79
2023/05/06 15:40:58;;;;;;;2.97;0.98;;;27.60;50.90;;;;;;6233559;28;20050;-79
2023/05/06 15:44:01;;;;;;;0.98;0.80;;;27.40;51.50;;;;;;6231394;28;20045;-79